createdAt,value
2022-09-14T00:02:36.679Z,19.76
2022-09-14T00:07:39.323Z,19.85
2022-09-14T00:12:41.910Z,19.85
2022-09-14T00:17:45.877Z,19.69
2022-09-14T00:22:48.436Z,19.60
2022-09-14T00:27:50.974Z,19.49
2022-09-14T00:32:54.883Z,19.41
2022-09-14T00:37:57.404Z,19.43
2022-09-14T00:42:59.993Z,19.46
2022-09-14T00:48:04.329Z,19.56
2022-09-14T00:53:07.156Z,19.60
2022-09-14T00:58:09.777Z,19.67
2022-09-14T01:03:13.714Z,19.57
2022-09-14T01:08:29.064Z,19.38
2022-09-14T01:13:35.158Z,19.19
2022-09-14T01:18:42.286Z,19.10
2022-09-14T01:23:49.962Z,19.05
2022-09-14T01:28:56.649Z,18.94
2022-09-14T01:34:16.865Z,18.91
2022-09-14T01:39:21.134Z,18.90
2022-09-14T01:44:29.105Z,18.88
2022-09-14T01:49:34.056Z,18.86
2022-09-14T01:54:40.344Z,18.83
2022-09-14T01:59:45.228Z,18.84
2022-09-14T02:04:49.717Z,18.87
2022-09-14T02:09:54.125Z,18.86
2022-09-14T02:14:58.078Z,18.83
2022-09-14T02:20:01.899Z,18.82
2022-09-14T02:25:04.731Z,18.74
2022-09-14T02:30:09.732Z,18.77
2022-09-14T02:35:16.521Z,18.84
2022-09-14T02:40:24.201Z,18.82
2022-09-14T02:45:32.397Z,18.76
2022-09-14T02:50:37.669Z,18.56
2022-09-14T02:55:43.272Z,18.46
2022-09-14T03:00:47.832Z,18.45
2022-09-14T03:05:50.461Z,18.63
2022-09-14T03:10:53.013Z,18.60
2022-09-14T03:15:57.029Z,18.58
2022-09-14T03:21:02.984Z,18.55
2022-09-14T03:26:08.164Z,18.53
2022-09-14T03:31:13.068Z,18.46
2022-09-14T03:36:16.518Z,18.48
2022-09-14T03:41:19.714Z,18.47
2022-09-14T03:46:25.368Z,18.53
2022-09-14T03:51:28.269Z,18.53
2022-09-14T03:56:30.929Z,18.54
2022-09-14T04:01:34.910Z,18.44
2022-09-14T04:06:37.513Z,18.42
2022-09-14T04:11:40.126Z,18.41
2022-09-14T04:16:44.773Z,18.47
2022-09-14T04:21:47.331Z,18.47
2022-09-14T04:26:49.872Z,18.44
2022-09-14T04:31:53.805Z,18.41
2022-09-14T04:36:56.388Z,18.46
2022-09-14T04:41:58.943Z,18.54
2022-09-14T04:47:02.879Z,18.67
2022-09-14T04:52:05.455Z,18.85
2022-09-14T04:57:08.002Z,19.05
2022-09-14T05:02:11.993Z,19.15
2022-09-14T05:07:14.717Z,19.24
2022-09-14T05:12:17.244Z,19.32
2022-09-14T05:17:21.133Z,19.30
2022-09-14T05:22:23.847Z,19.18
2022-09-14T05:27:26.366Z,19.17
2022-09-14T05:32:30.249Z,19.14
2022-09-14T05:37:32.787Z,19.05
2022-09-14T05:42:35.480Z,18.99
2022-09-14T05:47:39.463Z,18.87
2022-09-14T05:52:42.017Z,18.92
2022-09-14T05:57:44.587Z,18.93
2022-09-14T06:02:49.221Z,19.02
2022-09-14T06:07:52.730Z,19.06
2022-09-14T06:12:55.643Z,19.11
2022-09-14T06:17:59.651Z,19.07
2022-09-14T06:23:02.201Z,18.88
2022-09-14T06:28:04.747Z,18.86
2022-09-14T06:33:08.668Z,18.83
2022-09-14T06:38:11.217Z,18.76
2022-09-14T06:43:13.822Z,18.66
2022-09-14T06:48:17.742Z,18.52
2022-09-14T06:53:20.492Z,18.29
2022-09-14T06:58:23.038Z,18.06
2022-09-14T07:03:26.973Z,18.07
2022-09-14T07:08:29.639Z,18.20
2022-09-14T07:13:33.009Z,18.32
2022-09-14T07:18:37.029Z,18.46
2022-09-14T07:23:40.492Z,18.59
2022-09-14T07:28:44.304Z,18.64
2022-09-14T07:33:48.422Z,18.69
2022-09-14T07:38:53.018Z,18.84
2022-09-14T07:44:00.060Z,18.96
2022-09-14T07:49:04.922Z,19.05
2022-09-14T07:54:08.632Z,19.14
2022-09-14T07:59:34.626Z,19.25
2022-09-14T08:04:36.812Z,19.39
2022-09-14T08:09:39.568Z,19.43
2022-09-14T08:14:42.506Z,19.47
2022-09-14T08:19:46.578Z,19.56
2022-09-14T08:24:49.132Z,19.63
2022-09-14T08:29:51.652Z,19.73
2022-09-14T08:34:55.566Z,19.80
2022-09-14T08:39:58.145Z,19.93
2022-09-14T08:45:06.321Z,20.02
2022-09-14T08:50:17.263Z,20.19
2022-09-14T08:55:23.782Z,20.16
2022-09-14T09:00:31.062Z,20.24
2022-09-14T09:05:38.301Z,20.40
2022-09-14T09:10:41.926Z,20.35
2022-09-14T09:15:46.189Z,20.29
2022-09-14T09:20:52.280Z,20.50
2022-09-14T09:25:59.227Z,20.91
2022-09-14T09:31:04.929Z,21.37
2022-09-14T09:36:09.861Z,21.54
2022-09-14T09:41:14.265Z,21.86
2022-09-14T09:46:16.887Z,22.25
2022-09-14T09:51:28.386Z,22.58
2022-09-14T09:56:33.189Z,22.66
2022-09-14T10:01:36.582Z,22.69
2022-09-14T10:06:44.728Z,22.45
2022-09-14T10:11:48.039Z,22.21
2022-09-14T10:16:50.750Z,22.15
2022-09-14T10:22:05.970Z,22.29
2022-09-14T10:27:23.466Z,22.50
2022-09-14T10:32:26.205Z,22.57
2022-09-14T10:37:33.733Z,22.61
2022-09-14T10:42:40.850Z,22.57
2022-09-14T10:48:07.902Z,22.66
2022-09-14T10:53:21.741Z,22.65
2022-09-14T10:58:31.497Z,22.76
2022-09-14T11:03:45.995Z,22.58
2022-09-14T11:08:54.225Z,22.32
2022-09-14T11:14:04.743Z,22.36
2022-09-14T11:19:13.323Z,22.55
2022-09-14T11:24:20.537Z,22.53
2022-09-14T11:29:26.524Z,22.61
2022-09-14T11:34:30.725Z,22.67
2022-09-14T11:39:37.210Z,22.81
2022-09-14T11:44:41.009Z,23.02
2022-09-14T11:49:50.642Z,23.08
2022-09-14T11:54:54.962Z,23.04
2022-09-14T11:59:58.357Z,22.89
2022-09-14T12:05:19.618Z,22.84
2022-09-14T12:10:23.565Z,22.99
2022-09-14T12:15:34.476Z,23.29
2022-09-14T12:20:42.943Z,23.54
2022-09-14T12:25:59.110Z,23.71
2022-09-14T12:31:13.387Z,23.75
2022-09-14T12:36:30.823Z,23.51
2022-09-14T12:41:51.942Z,23.45
2022-09-14T12:46:56.592Z,23.22
2022-09-14T12:52:02.360Z,23.22
2022-09-14T12:57:10.421Z,23.35
2022-09-14T13:02:31.755Z,23.43
2022-09-14T13:07:37.546Z,23.35
2022-09-14T13:12:42.331Z,23.27
2022-09-14T13:17:56.465Z,23.34
2022-09-14T13:23:00.659Z,23.40
2022-09-14T13:28:04.932Z,23.52
2022-09-14T13:33:08.115Z,23.61
2022-09-14T13:38:16.581Z,23.86
2022-09-14T13:43:19.796Z,24.05
2022-09-14T13:48:22.639Z,24.03
2022-09-14T13:53:40.390Z,24.12
2022-09-14T13:58:43.000Z,24.32
2022-09-14T14:03:49.112Z,24.63
2022-09-14T14:09:03.835Z,24.80
2022-09-14T14:19:23.754Z,25.08
2022-09-14T14:24:29.378Z,25.24
2022-09-14T14:29:32.009Z,25.35
2022-09-14T14:34:34.662Z,25.28
2022-09-14T14:39:38.978Z,25.31
2022-09-14T14:44:42.539Z,25.12
2022-09-14T14:49:45.066Z,24.96
2022-09-14T14:54:49.069Z,24.65
2022-09-14T14:59:53.008Z,24.50
2022-09-14T15:04:55.583Z,24.48
2022-09-14T15:09:59.920Z,24.57
2022-09-14T15:15:02.770Z,24.78
2022-09-14T15:20:05.626Z,24.85
2022-09-14T15:25:10.425Z,24.68
2022-09-14T15:30:13.509Z,24.42
2022-09-14T15:35:16.161Z,24.28
2022-09-14T15:40:20.237Z,24.07
2022-09-14T15:45:22.998Z,23.84
2022-09-14T15:50:26.052Z,23.64
2022-09-14T15:55:29.993Z,23.49
2022-09-14T16:00:32.537Z,23.41
2022-09-14T16:05:38.289Z,23.37
2022-09-14T16:10:42.371Z,23.29
2022-09-14T16:15:44.977Z,23.16
2022-09-14T16:20:47.583Z,23.08
2022-09-14T16:25:51.549Z,22.94
2022-09-14T16:30:54.092Z,22.87
2022-09-14T16:36:02.779Z,22.85
2022-09-14T16:41:06.985Z,22.80
2022-09-14T16:46:10.732Z,22.74
2022-09-14T16:51:14.214Z,22.65
2022-09-14T16:56:19.279Z,22.48
2022-09-14T17:01:23.564Z,22.34
2022-09-14T17:06:27.157Z,22.24
2022-09-14T17:11:32.385Z,22.18
2022-09-14T17:16:35.253Z,22.17
2022-09-14T17:21:38.988Z,22.11
2022-09-14T17:26:43.266Z,22.07
2022-09-14T17:31:46.267Z,22.04
2022-09-14T17:36:48.829Z,22.00
2022-09-14T17:41:52.738Z,21.93
2022-09-14T17:46:55.339Z,21.90
2022-09-14T17:51:57.914Z,21.83
2022-09-14T17:57:01.830Z,21.77
2022-09-14T18:02:04.391Z,21.73
2022-09-14T18:07:07.194Z,21.16
2022-09-14T18:12:11.310Z,16.03
2022-09-14T18:17:14.108Z,15.43
2022-09-14T18:22:16.853Z,15.39
2022-09-14T18:27:20.768Z,14.86
2022-09-14T18:32:23.319Z,14.91
2022-09-14T18:37:25.932Z,15.28
2022-09-14T18:42:29.820Z,15.28
2022-09-14T18:47:32.337Z,15.40
2022-09-14T18:52:34.896Z,15.44
2022-09-14T18:57:39.557Z,15.39
2022-09-14T19:02:42.322Z,15.50
2022-09-14T19:07:44.860Z,15.53
2022-09-14T19:12:48.807Z,15.63
2022-09-14T19:17:51.785Z,15.67
2022-09-14T19:22:56.162Z,15.62
2022-09-14T19:28:00.119Z,15.46
2022-09-14T19:33:02.888Z,15.41
2022-09-14T19:38:05.418Z,15.43
2022-09-14T19:43:09.379Z,15.44
2022-09-14T19:48:12.205Z,15.66
2022-09-14T19:53:14.761Z,15.84
2022-09-14T19:58:18.666Z,15.69
2022-09-14T20:03:21.281Z,15.77
2022-09-14T20:08:23.811Z,15.61
2022-09-14T20:13:27.765Z,15.50
2022-09-14T20:18:31.848Z,15.58
2022-09-14T20:23:34.402Z,15.71
2022-09-14T20:28:38.792Z,15.78
2022-09-14T20:33:41.375Z,15.76
2022-09-14T20:38:48.496Z,15.72
2022-09-14T20:43:54.620Z,15.57
2022-09-14T20:48:57.673Z,15.48
2022-09-14T20:54:00.233Z,15.40
2022-09-14T20:59:07.232Z,15.34
2022-09-14T21:04:10.766Z,15.39
2022-09-14T21:09:13.881Z,15.44
2022-09-14T21:14:18.765Z,15.39
2022-09-14T21:19:22.221Z,15.30
2022-09-14T21:24:24.820Z,15.27
2022-09-14T21:29:28.739Z,15.27
2022-09-14T21:34:31.438Z,15.32
2022-09-14T21:39:34.117Z,15.38
2022-09-14T21:44:38.818Z,15.39
2022-09-14T21:49:41.345Z,15.40
2022-09-14T21:54:43.874Z,15.40
2022-09-14T21:59:47.769Z,15.37
2022-09-14T22:04:50.366Z,15.36
2022-09-14T22:09:53.501Z,15.39
2022-09-14T22:14:57.464Z,15.33
2022-09-14T22:20:00.685Z,15.25
2022-09-14T22:25:03.233Z,15.16
2022-09-14T22:30:07.965Z,15.15
2022-09-14T22:35:10.501Z,15.19
2022-09-14T22:40:13.117Z,15.26
2022-09-14T22:45:18.274Z,15.26
2022-09-14T22:50:20.834Z,15.28
2022-09-14T22:55:23.351Z,15.22
2022-09-14T23:00:27.263Z,15.17
2022-09-14T23:05:29.821Z,15.16
2022-09-14T23:10:32.986Z,15.06
2022-09-14T23:15:39.545Z,14.99
2022-09-14T23:20:43.241Z,14.94
2022-09-14T23:25:45.958Z,14.88
2022-09-14T23:30:54.341Z,14.85
2022-09-14T23:35:57.049Z,14.88
2022-09-14T23:40:59.585Z,14.87
2022-09-14T23:46:03.589Z,14.79
2022-09-14T23:51:07.252Z,14.65
2022-09-14T23:56:10.008Z,14.61
